createdAt,value
2018-12-02T00:00:56.851Z,15.20
2018-12-02T00:03:22.873Z,15.10
2018-12-02T00:05:48.904Z,15.10
2018-12-02T00:08:18.877Z,15.10
2018-12-02T00:10:44.697Z,15.00
2018-12-02T00:15:42.427Z,15.10
2018-12-02T00:20:40.804Z,15.00
2018-12-02T00:23:07.037Z,15.10
2018-12-02T00:25:33.066Z,15.10
2018-12-02T00:27:59.634Z,15.10
2018-12-02T00:33:00.972Z,15.10
2018-12-02T00:35:27.598Z,15.10
2018-12-02T00:37:53.626Z,15.00
2018-12-02T00:40:19.912Z,15.10
2018-12-02T00:42:45.728Z,15.10
2018-12-02T00:45:11.694Z,15.10
2018-12-02T00:47:37.712Z,15.10
2018-12-02T00:50:03.782Z,15.10
2018-12-02T00:52:29.778Z,15.00
2018-12-02T00:57:27.949Z,15.00
2018-12-02T01:02:25.792Z,15.10
2018-12-02T01:04:51.756Z,15.10
2018-12-02T01:07:17.781Z,15.00
2018-12-02T01:09:43.802Z,15.00
2018-12-02T01:12:09.829Z,15.00
2018-12-02T01:14:35.673Z,15.00
2018-12-02T01:17:01.672Z,15.10
2018-12-02T01:21:59.861Z,15.10
2018-12-02T01:24:25.899Z,15.10
2018-12-02T01:26:54.977Z,15.10
2018-12-02T01:29:21.011Z,15.10
2018-12-02T01:31:49.074Z,15.10
2018-12-02T01:34:15.111Z,15.00
2018-12-02T01:36:42.969Z,15.00
2018-12-02T01:39:08.809Z,15.00
2018-12-02T01:41:34.676Z,15.00
2018-12-02T01:44:00.637Z,15.00
2018-12-02T01:49:00.945Z,15.00
2018-12-02T01:51:27.060Z,15.10
2018-12-02T01:53:54.959Z,15.00
2018-12-02T01:56:25.073Z,15.00
2018-12-02T02:01:25.681Z,15.00
2018-12-02T02:06:23.511Z,15.00
2018-12-02T02:08:49.534Z,15.00
2018-12-02T02:11:19.033Z,15.00
2018-12-02T02:13:44.866Z,15.00
2018-12-02T02:21:19.102Z,15.00
2018-12-02T02:26:16.677Z,15.00
2018-12-02T02:28:42.537Z,15.00
2018-12-02T02:31:08.525Z,15.00
2018-12-02T02:33:34.349Z,15.00
2018-12-02T02:36:01.189Z,15.10
2018-12-02T02:38:31.096Z,15.10
2018-12-02T02:40:57.127Z,15.00
2018-12-02T02:43:23.159Z,15.10
2018-12-02T02:48:25.537Z,15.00
2018-12-02T02:50:55.161Z,15.00
2018-12-02T02:53:25.537Z,14.90
2018-12-02T02:55:51.359Z,14.90
2018-12-02T02:58:17.338Z,15.00
2018-12-02T03:00:43.161Z,15.00
2018-12-02T03:03:09.148Z,15.00
2018-12-02T03:05:35.183Z,15.00
2018-12-02T03:08:07.203Z,15.00
2018-12-02T03:10:33.171Z,15.00
2018-12-02T03:13:01.023Z,15.00
2018-12-02T03:15:27.051Z,15.00
2018-12-02T03:17:53.079Z,14.90
2018-12-02T03:22:51.477Z,15.00
2018-12-02T03:25:19.199Z,15.00
2018-12-02T03:27:49.308Z,15.00
2018-12-02T03:30:15.178Z,15.10
2018-12-02T03:32:41.037Z,15.10
2018-12-02T03:35:07.115Z,15.10
2018-12-02T03:37:33.145Z,15.00
2018-12-02T03:40:01.027Z,15.00
2018-12-02T03:42:31.142Z,15.10
2018-12-02T03:45:01.045Z,15.00
2018-12-02T03:47:31.170Z,15.00
2018-12-02T03:49:57.743Z,15.00
2018-12-02T03:52:25.246Z,14.80
2018-12-02T03:54:51.291Z,15.00
2018-12-02T03:57:17.940Z,15.00
2018-12-02T04:02:19.652Z,15.00
2018-12-02T04:04:49.100Z,15.00
2018-12-02T04:07:19.236Z,14.90
2018-12-02T04:14:50.192Z,15.00
2018-12-02T04:19:49.201Z,15.00
2018-12-02T04:22:19.441Z,15.00
2018-12-02T04:27:17.542Z,15.00
2018-12-02T04:29:43.535Z,14.90
2018-12-02T04:32:09.705Z,15.00
2018-12-02T04:37:07.663Z,15.10
2018-12-02T04:44:37.089Z,15.00
2018-12-02T04:49:35.880Z,15.00
2018-12-02T04:52:01.922Z,15.00
2018-12-02T04:54:28.494Z,15.00
2018-12-02T04:59:31.248Z,15.00
2018-12-02T05:01:57.270Z,15.00
2018-12-02T05:04:23.338Z,15.00
2018-12-02T05:09:21.384Z,15.00
2018-12-02T05:16:51.437Z,15.00
2018-12-02T05:24:21.385Z,15.00
2018-12-02T05:26:47.438Z,15.00
2018-12-02T05:31:44.781Z,15.00
2018-12-02T05:34:11.368Z,15.00
2018-12-02T05:39:13.403Z,15.00
2018-12-02T05:44:13.121Z,15.00
2018-12-02T05:46:39.179Z,15.00
2018-12-02T05:49:07.309Z,15.00
2018-12-02T05:51:33.241Z,15.00
2018-12-02T05:53:59.270Z,15.00
2018-12-02T05:58:57.259Z,15.00
2018-12-02T06:03:55.849Z,15.00
2018-12-02T06:06:21.872Z,15.00
2018-12-02T06:08:47.893Z,15.00
2018-12-02T06:11:13.917Z,15.00
2018-12-02T06:13:43.253Z,15.10
2018-12-02T06:16:09.246Z,15.10
2018-12-02T06:21:07.840Z,14.90
2018-12-02T06:23:33.864Z,15.00
2018-12-02T06:25:59.690Z,15.00
2018-12-02T06:31:01.560Z,15.00
2018-12-02T06:33:27.594Z,15.00
2018-12-02T06:35:54.215Z,15.10
2018-12-02T06:38:20.288Z,15.00
2018-12-02T06:40:46.267Z,15.10
2018-12-02T06:45:43.691Z,15.00
2018-12-02T06:48:09.665Z,15.00
2018-12-02T06:50:35.688Z,15.10
2018-12-02T07:03:08.143Z,15.00
2018-12-02T07:08:07.141Z,15.00
2018-12-02T07:10:33.307Z,15.10
2018-12-02T07:15:31.155Z,15.00
2018-12-02T07:18:01.288Z,14.90
2018-12-02T07:23:00.268Z,14.90
2018-12-02T07:25:26.331Z,14.90
2018-12-02T07:27:52.333Z,14.90
2018-12-02T07:32:50.922Z,15.20
2018-12-02T07:35:16.952Z,15.40
2018-12-02T07:37:43.000Z,15.50
2018-12-02T07:40:08.876Z,15.70
2018-12-02T07:42:34.837Z,15.80
2018-12-02T07:47:33.620Z,16.00
2018-12-02T07:52:31.610Z,16.30
2018-12-02T07:57:30.614Z,16.40
2018-12-02T08:07:31.304Z,16.70
2018-12-02T08:15:02.480Z,16.80
2018-12-02T08:17:28.504Z,16.90
2018-12-02T08:19:55.210Z,17.00
2018-12-02T08:22:21.729Z,17.00
2018-12-02T08:24:47.186Z,17.10
2018-12-02T08:27:13.935Z,17.10
2018-12-02T08:29:39.256Z,17.20
2018-12-02T08:37:13.223Z,17.20
2018-12-02T08:39:54.880Z,17.20
2018-12-02T08:44:55.307Z,17.40
2018-12-02T08:47:21.325Z,17.40
2018-12-02T08:49:47.367Z,17.40
2018-12-02T08:52:19.215Z,17.50
2018-12-02T08:54:49.236Z,17.50
2018-12-02T08:57:15.250Z,17.50
2018-12-02T08:59:41.276Z,17.50
2018-12-02T09:02:07.294Z,17.60
2018-12-02T09:04:33.324Z,17.60
2018-12-02T09:06:59.392Z,17.60
2018-12-02T09:09:25.369Z,17.60
2018-12-02T09:14:23.381Z,17.70
2018-12-02T09:16:49.385Z,17.70
2018-12-02T09:21:49.034Z,17.70
2018-12-02T09:24:15.032Z,17.70
2018-12-02T09:26:41.053Z,17.80
2018-12-02T09:29:07.281Z,17.80
2018-12-02T09:34:05.904Z,17.80
2018-12-02T09:36:31.741Z,17.70
2018-12-02T09:38:57.737Z,17.80
2018-12-02T09:41:23.774Z,17.80
2018-12-02T09:43:49.777Z,17.80
2018-12-02T09:46:15.615Z,17.80
2018-12-02T09:51:19.319Z,17.80
2018-12-02T09:53:49.439Z,17.90
2018-12-02T09:58:48.746Z,17.90
2018-12-02T10:01:14.603Z,17.90
2018-12-02T10:03:40.500Z,17.90
2018-12-02T10:11:10.857Z,18.00
2018-12-02T10:18:40.622Z,18.00
2018-12-02T10:26:10.388Z,18.10
2018-12-02T10:31:08.010Z,18.10
2018-12-02T10:33:37.439Z,18.10
2018-12-02T10:38:36.053Z,18.20
2018-12-02T10:41:01.886Z,18.20
2018-12-02T10:46:01.582Z,18.20
2018-12-02T10:48:28.154Z,18.20
2018-12-02T10:50:54.188Z,18.10
2018-12-02T10:53:20.166Z,18.20
2018-12-02T10:55:49.457Z,18.20
2018-12-02T11:11:01.440Z,18.30
2018-12-02T11:18:37.536Z,18.30
2018-12-02T11:23:35.194Z,18.40
2018-12-02T11:26:01.188Z,18.40
2018-12-02T11:28:27.347Z,18.40
2018-12-02T11:30:53.380Z,18.50
2018-12-02T11:33:19.413Z,18.50
2018-12-02T11:38:19.486Z,18.50
2018-12-02T11:40:45.596Z,18.50
2018-12-02T11:45:43.261Z,18.60
2018-12-02T11:48:09.858Z,18.60
2018-12-02T11:50:35.912Z,18.60
2018-12-02T11:58:06.294Z,18.60
2018-12-02T12:00:32.520Z,18.60
2018-12-02T12:02:58.537Z,18.60
2018-12-02T12:05:31.532Z,18.60
2018-12-02T12:07:57.602Z,18.60
2018-12-02T12:12:55.519Z,18.60
2018-12-02T12:17:55.372Z,18.70
2018-12-02T12:20:21.529Z,18.70
2018-12-02T12:22:47.655Z,18.70
2018-12-02T12:25:13.681Z,18.70
2018-12-02T12:27:43.577Z,18.70
2018-12-02T12:30:09.588Z,18.80
2018-12-02T12:32:37.448Z,18.70
2018-12-02T12:35:03.450Z,18.70
2018-12-02T12:37:31.555Z,18.70
2018-12-02T12:39:57.492Z,18.70
2018-12-02T12:47:26.497Z,18.70
2018-12-02T12:52:24.255Z,18.80
2018-12-02T12:57:22.856Z,18.80
2018-12-02T12:59:48.894Z,18.80
2018-12-02T13:02:15.721Z,18.80
2018-12-02T13:04:41.754Z,18.80
2018-12-02T13:09:40.357Z,18.80
2018-12-02T13:12:07.617Z,18.80
2018-12-02T13:19:38.578Z,18.80
2018-12-02T13:32:13.500Z,18.90
2018-12-02T13:34:39.581Z,18.90
2018-12-02T13:37:05.518Z,18.90
2018-12-02T13:42:03.711Z,19.00
2018-12-02T13:44:31.590Z,19.00
2018-12-02T13:49:30.583Z,19.00
2018-12-02T13:51:56.442Z,18.90
2018-12-02T13:54:22.439Z,19.10
2018-12-02T14:01:52.408Z,19.00
2018-12-02T14:04:18.416Z,19.00
2018-12-02T14:06:45.021Z,19.10
2018-12-02T14:09:11.073Z,19.10
2018-12-02T14:11:37.711Z,19.10
2018-12-02T14:16:37.574Z,19.10
2018-12-02T14:19:03.560Z,19.10
2018-12-02T14:21:31.517Z,19.10
2018-12-02T14:23:57.521Z,19.10
2018-12-02T14:26:23.995Z,19.10
2018-12-02T14:28:49.866Z,19.10
2018-12-02T14:31:19.612Z,19.10
2018-12-02T14:33:49.776Z,19.10
2018-12-02T14:36:15.781Z,19.10
2018-12-02T14:38:41.786Z,19.20
2018-12-02T14:41:08.420Z,19.20
2018-12-02T14:43:35.069Z,19.20
2018-12-02T14:46:07.648Z,19.20
2018-12-02T14:48:37.567Z,19.20
2018-12-02T14:51:03.573Z,19.10
2018-12-02T14:53:29.604Z,19.10
2018-12-02T15:01:01.604Z,19.20
2018-12-02T15:03:28.190Z,19.20
2018-12-02T15:05:54.025Z,19.10
2018-12-02T15:08:25.481Z,19.20
2018-12-02T15:10:51.447Z,19.20
2018-12-02T15:13:17.446Z,19.10
2018-12-02T15:18:19.538Z,19.20
2018-12-02T15:23:17.697Z,19.20
2018-12-02T15:25:43.740Z,19.30
2018-12-02T15:28:09.780Z,19.30
2018-12-02T15:35:40.335Z,19.30
2018-12-02T15:48:19.553Z,19.40
2018-12-02T15:50:50.364Z,19.40
2018-12-02T15:53:11.581Z,19.40
2018-12-02T15:55:37.601Z,19.60
2018-12-02T15:58:03.626Z,19.60
2018-12-02T16:00:29.651Z,19.50
2018-12-02T16:02:55.673Z,19.60
2018-12-02T16:05:21.700Z,19.60
2018-12-02T16:07:47.722Z,19.60
2018-12-02T16:10:19.701Z,19.50
2018-12-02T16:12:49.610Z,19.60
2018-12-02T16:15:19.720Z,19.60
2018-12-02T16:17:45.788Z,19.60
2018-12-02T16:27:48.516Z,19.60
2018-12-02T16:30:14.500Z,19.50
2018-12-02T16:32:43.598Z,19.50
2018-12-02T16:35:13.738Z,19.50
2018-12-02T16:37:39.746Z,19.50
2018-12-02T16:42:38.747Z,19.50
2018-12-02T16:45:04.774Z,19.50
2018-12-02T16:47:31.368Z,19.60
2018-12-02T16:49:57.210Z,19.60
2018-12-02T16:52:23.058Z,19.60
2018-12-02T16:54:49.688Z,19.80
2018-12-02T16:57:15.714Z,19.70
2018-12-02T16:59:41.723Z,19.70
2018-12-02T17:02:07.552Z,19.70
2018-12-02T17:04:33.582Z,19.50
2018-12-02T17:07:01.649Z,19.80
2018-12-02T17:09:27.669Z,19.70
2018-12-02T17:11:53.512Z,19.70
2018-12-02T17:14:20.200Z,19.80
2018-12-02T17:16:47.186Z,19.80
2018-12-02T17:24:18.559Z,19.90
2018-12-02T17:29:19.629Z,19.90
2018-12-02T17:31:49.747Z,19.90
2018-12-02T17:34:19.678Z,19.90
2018-12-02T17:36:45.687Z,19.90
2018-12-02T17:39:13.754Z,20.10
2018-12-02T17:41:44.305Z,20.10
2018-12-02T17:44:09.691Z,20.10
2018-12-02T17:46:35.720Z,20.20
2018-12-02T17:49:07.674Z,20.10
2018-12-02T17:51:37.596Z,20.10
2018-12-02T17:59:07.751Z,20.20
2018-12-02T18:01:37.661Z,20.30
2018-12-02T18:04:07.777Z,20.30
2018-12-02T18:06:33.807Z,20.40
2018-12-02T18:11:32.460Z,20.40
2018-12-02T18:13:58.429Z,20.40
2018-12-02T18:16:24.457Z,20.30
2018-12-02T18:18:55.802Z,20.30
2018-12-02T18:21:25.717Z,20.10
2018-12-02T18:23:51.729Z,20.10
2018-12-02T18:26:17.765Z,20.10
2018-12-02T18:28:43.785Z,20.00
2018-12-02T18:31:09.806Z,19.90
2018-12-02T18:33:35.848Z,19.80
2018-12-02T18:36:07.793Z,19.60
2018-12-02T18:38:33.821Z,19.60
2018-12-02T18:40:59.878Z,19.60
2018-12-02T18:43:25.703Z,19.40
2018-12-02T18:45:51.681Z,19.40
2018-12-02T18:48:17.709Z,19.30
2018-12-02T18:50:49.669Z,19.20
2018-12-02T18:53:15.692Z,19.20
2018-12-02T18:55:41.716Z,19.10
2018-12-02T18:58:07.572Z,19.10
2018-12-02T19:00:33.560Z,19.00
2018-12-02T19:02:59.578Z,19.00
2018-12-02T19:05:25.604Z,18.90
2018-12-02T19:10:22.975Z,18.80
2018-12-02T19:12:49.007Z,18.70
2018-12-02T19:15:15.029Z,18.60
2018-12-02T19:17:41.049Z,18.60
2018-12-02T19:20:07.070Z,18.60
2018-12-02T19:22:33.096Z,18.50
2018-12-02T19:25:01.786Z,18.50
2018-12-02T19:27:31.702Z,18.50
2018-12-02T19:30:01.826Z,18.50
2018-12-02T19:32:28.394Z,18.40
2018-12-02T19:37:31.770Z,18.30
2018-12-02T19:39:58.350Z,18.20
2018-12-02T19:44:57.009Z,18.20
2018-12-02T19:47:23.030Z,18.10
2018-12-02T19:49:49.656Z,18.10
2018-12-02T19:52:15.692Z,18.10
2018-12-02T19:54:41.717Z,18.00
2018-12-02T19:57:07.743Z,18.10
2018-12-02T19:59:33.777Z,18.10
2018-12-02T20:02:01.843Z,18.00
2018-12-02T20:04:31.751Z,18.00
2018-12-02T20:06:57.773Z,18.00
2018-12-02T20:09:25.849Z,18.00
2018-12-02T20:14:25.677Z,17.90
2018-12-02T20:16:51.697Z,17.90
2018-12-02T20:19:17.727Z,17.90
2018-12-02T20:21:49.687Z,17.80
2018-12-02T20:24:15.702Z,17.80
2018-12-02T20:26:41.733Z,17.80
2018-12-02T20:29:07.753Z,17.70
2018-12-02T20:31:33.781Z,17.80
2018-12-02T20:33:59.806Z,17.70
2018-12-02T20:36:25.827Z,17.70
2018-12-02T20:38:55.758Z,17.70
2018-12-02T20:41:25.863Z,17.80
2018-12-02T20:46:25.701Z,17.70
2018-12-02T20:48:55.813Z,17.60
2018-12-02T20:51:21.828Z,17.60
2018-12-02T20:53:47.858Z,17.70
2018-12-02T20:56:19.820Z,17.60
2018-12-02T20:58:49.732Z,17.60
2018-12-02T21:01:15.764Z,17.60
2018-12-02T21:03:43.842Z,17.60
2018-12-02T21:06:10.410Z,17.50
2018-12-02T21:08:37.726Z,17.50
2018-12-02T21:11:03.747Z,17.50
2018-12-02T21:13:29.774Z,17.60
2018-12-02T21:15:55.793Z,17.50
2018-12-02T21:18:21.817Z,17.50
2018-12-02T21:20:47.836Z,17.40
2018-12-02T21:23:13.863Z,17.40
2018-12-02T21:25:39.894Z,17.40
2018-12-02T21:38:13.765Z,17.30
2018-12-02T21:40:39.785Z,17.30
2018-12-02T21:43:05.812Z,17.30
2018-12-02T21:45:31.836Z,17.20
2018-12-02T21:50:29.196Z,17.20
2018-12-02T21:52:55.220Z,17.20
2018-12-02T21:55:21.250Z,17.20
2018-12-02T21:57:47.281Z,17.10
2018-12-02T22:02:44.649Z,17.10
2018-12-02T22:05:10.670Z,17.10
2018-12-02T22:07:36.705Z,17.10
2018-12-02T22:12:35.292Z,17.10
2018-12-02T22:15:01.330Z,17.10
2018-12-02T22:20:01.771Z,17.00
2018-12-02T22:27:31.734Z,17.00
2018-12-02T22:35:01.660Z,17.00
2018-12-02T22:37:27.681Z,17.00
2018-12-02T22:39:53.708Z,16.90
2018-12-02T22:42:19.750Z,16.90
2018-12-02T22:44:49.752Z,17.00
2018-12-02T22:47:19.975Z,17.00
2018-12-02T22:52:18.778Z,16.90
2018-12-02T22:54:44.795Z,16.90
2018-12-02T22:57:10.830Z,16.90
2018-12-02T23:02:09.425Z,16.90
2018-12-02T23:04:35.443Z,16.90
2018-12-02T23:07:01.473Z,16.90
2018-12-02T23:09:27.494Z,16.90
2018-12-02T23:11:53.513Z,16.90
2018-12-02T23:14:19.548Z,16.90
2018-12-02T23:16:46.152Z,16.90
2018-12-02T23:21:43.961Z,16.80
2018-12-02T23:24:09.978Z,16.80
2018-12-02T23:26:36.010Z,16.80
2018-12-02T23:29:08.557Z,16.80
2018-12-02T23:31:33.997Z,16.80
2018-12-02T23:34:00.012Z,16.80
2018-12-02T23:36:26.042Z,16.80
2018-12-02T23:46:26.314Z,16.80
2018-12-02T23:48:52.333Z,16.80
2018-12-02T23:51:18.362Z,16.80
2018-12-02T23:53:44.378Z,16.70
2018-12-02T23:56:10.404Z,16.70
2018-12-02T23:58:37.866Z,16.70
